Terminal Aerodrome Forecast
Issued by NWS Sioux Falls, SD

Home | Current Version | Previous Version | Text Only | Print | Product List | Glossary On
Versions: 1 2 3 4 5 6 7 8 9 10 11 12 13 14 15 16 17 18 19 20 21 22 23 24 25 26 27
000
FTUS43 KFSD 252104 AAA
TAFSUX
TAF AMD
KSUX 252104Z 2521/2618 01018G26KT 4SM -SN BKN020 OVC040
     FM252300 36018G28KT P6SM BKN020
     FM260300 35017KT P6SM SCT020 BKN070
     FM261000 33015KT P6SM SCT020=

USA.gov is the U.S. government's official web portal to all federal, state and local government web resources and services.